createdAt,value
2019-04-22T00:00:44.607Z,21.00
2019-04-22T00:01:41.946Z,21.09
2019-04-22T00:02:49.018Z,21.20
2019-04-22T00:03:47.473Z,21.39
2019-04-22T00:04:57.582Z,21.09
2019-04-22T00:06:01.178Z,21.39
2019-04-22T00:07:03.151Z,21.20
2019-04-22T00:08:10.579Z,21.19
2019-04-22T00:09:11.077Z,21.39
2019-04-22T00:10:12.097Z,20.79
2019-04-22T00:11:14.412Z,21.09
2019-04-22T00:12:06.401Z,21.09
2019-04-22T00:13:23.755Z,21.39
2019-04-22T00:14:01.240Z,21.39
2019-04-22T00:15:04.007Z,21.09
2019-04-22T00:15:59.257Z,21.39
2019-04-22T00:17:17.770Z,21.20
2019-04-22T00:18:19.922Z,20.90
2019-04-22T00:19:58.251Z,21.00
2019-04-22T00:20:10.159Z,21.00
2019-04-22T00:21:04.404Z,20.79
2019-04-22T00:22:09.249Z,21.39
2019-04-22T00:23:10.090Z,21.00
2019-04-22T00:24:07.477Z,21.00
2019-04-22T00:25:08.070Z,21.20
2019-04-22T00:26:14.825Z,21.20
2019-04-22T00:27:18.344Z,21.20
2019-04-22T00:28:09.504Z,21.20
2019-04-22T00:29:34.493Z,21.20
2019-04-22T00:31:10.211Z,21.30
2019-04-22T00:32:05.505Z,21.00
2019-04-22T00:33:04.786Z,20.90
2019-04-22T00:34:06.148Z,21.20
2019-04-22T00:35:08.533Z,21.09
2019-04-22T00:36:12.772Z,21.20
2019-04-22T00:37:07.920Z,21.00
2019-04-22T00:38:12.795Z,21.30
2019-04-22T00:39:07.410Z,21.30
2019-04-22T00:40:09.364Z,21.00
2019-04-22T00:41:10.339Z,20.90
2019-04-22T00:42:10.071Z,20.79
2019-04-22T00:43:05.035Z,21.00
2019-04-22T00:44:12.354Z,20.79
2019-04-22T00:45:11.754Z,20.79
2019-04-22T00:46:02.704Z,21.00
2019-04-22T00:47:11.596Z,21.00
2019-04-22T00:48:09.198Z,21.09
2019-04-22T00:49:54.863Z,20.79
2019-04-22T00:51:17.917Z,21.50
2019-04-22T00:53:15.264Z,21.30
2019-04-22T00:54:08.685Z,20.68
2019-04-22T00:55:13.360Z,21.09
2019-04-22T00:56:07.918Z,21.80
2019-04-22T00:57:08.722Z,20.79
2019-04-22T00:58:08.267Z,21.30
2019-04-22T00:59:11.948Z,21.59
2019-04-22T01:00:07.003Z,20.70
2019-04-22T01:01:07.794Z,20.90
2019-04-22T01:02:11.948Z,20.70
2019-04-22T01:03:11.799Z,21.89
2019-04-22T01:04:14.762Z,21.80
2019-04-22T01:05:13.572Z,21.80
2019-04-22T01:07:09.182Z,21.80
2019-04-22T01:08:07.035Z,21.39
2019-04-22T01:09:10.802Z,22.09
2019-04-22T01:10:06.938Z,21.70
2019-04-22T01:11:13.360Z,21.89
2019-04-22T01:12:08.247Z,21.89
2019-04-22T01:13:08.147Z,22.00
2019-04-22T01:14:04.796Z,21.70
2019-04-22T01:15:09.239Z,22.00
2019-04-22T01:16:13.907Z,21.89
2019-04-22T01:17:17.579Z,20.79
2019-04-22T01:18:03.611Z,21.80
2019-04-22T01:19:10.440Z,21.80
2019-04-22T01:20:24.626Z,21.39
2019-04-22T01:22:12.453Z,21.80
2019-04-22T01:23:08.086Z,21.80
2019-04-22T01:24:03.931Z,21.59
2019-04-22T01:25:06.856Z,21.89
2019-04-22T01:25:57.084Z,20.70
2019-04-22T01:27:00.519Z,21.20
2019-04-22T01:27:58.262Z,21.39
2019-04-22T01:28:53.915Z,21.39
2019-04-22T01:29:54.182Z,20.90
2019-04-22T01:30:49.230Z,21.70
2019-04-22T01:31:43.849Z,21.70
2019-04-22T01:32:45.718Z,21.59
2019-04-22T01:33:46.506Z,21.39
2019-04-22T01:36:01.444Z,21.78
2019-04-22T01:36:57.699Z,21.80
2019-04-22T01:37:58.934Z,21.89
2019-04-22T01:39:07.211Z,21.78
2019-04-22T01:40:06.106Z,22.09
2019-04-22T01:41:08.320Z,20.79
2019-04-22T01:42:18.713Z,20.70
2019-04-22T01:43:06.998Z,21.78
2019-04-22T01:44:16.442Z,20.59
2019-04-22T01:45:09.880Z,21.09
2019-04-22T01:46:08.014Z,20.90
2019-04-22T01:47:10.193Z,20.70
2019-04-22T01:48:02.820Z,21.89
2019-04-22T01:49:17.287Z,20.79
2019-04-22T01:50:09.958Z,21.48
2019-04-22T01:51:01.685Z,21.28
2019-04-22T01:52:07.757Z,21.09
2019-04-22T01:53:13.338Z,21.59
2019-04-22T01:54:12.309Z,21.59
2019-04-22T01:55:12.645Z,21.19
2019-04-22T01:56:06.005Z,21.48
2019-04-22T01:57:03.378Z,21.78
2019-04-22T01:57:59.503Z,21.09
2019-04-22T01:58:59.197Z,21.19
2019-04-22T01:59:57.619Z,21.20
2019-04-22T02:01:04.565Z,21.09
2019-04-22T02:02:02.912Z,21.80
2019-04-22T02:03:07.229Z,20.98
2019-04-22T02:04:08.782Z,21.80
2019-04-22T02:06:05.844Z,21.09
2019-04-22T02:07:14.363Z,21.09
2019-04-22T02:08:18.063Z,21.39
2019-04-22T02:09:09.553Z,21.09
2019-04-22T02:10:07.426Z,21.09
2019-04-22T02:11:08.320Z,21.80
2019-04-22T02:12:05.974Z,21.89
2019-04-22T02:13:11.486Z,21.78
2019-04-22T02:14:04.111Z,21.80
2019-04-22T02:15:06.601Z,21.80
2019-04-22T02:16:06.729Z,21.59
2019-04-22T02:17:09.186Z,21.19
2019-04-22T02:18:11.047Z,21.59
2019-04-22T02:19:11.625Z,21.59
2019-04-22T02:20:12.059Z,21.19
2019-04-22T02:21:07.380Z,21.09
2019-04-22T02:22:12.904Z,21.59
2019-04-22T02:23:38.802Z,21.19
2019-04-22T02:24:05.209Z,20.79
2019-04-22T02:25:09.363Z,22.08
2019-04-22T02:27:10.508Z,20.68
2019-04-22T02:28:24.030Z,20.68
2019-04-22T02:29:06.594Z,20.89
2019-04-22T02:30:22.466Z,20.59
2019-04-22T02:33:25.502Z,21.09
2019-04-22T02:34:13.858Z,21.78
2019-04-22T02:35:11.604Z,21.39
2019-04-22T02:37:12.472Z,21.69
2019-04-22T02:38:23.766Z,21.89
2019-04-22T02:40:34.891Z,20.68
2019-04-22T02:42:16.613Z,22.19
2019-04-22T02:43:11.724Z,21.59
2019-04-22T02:45:09.649Z,21.78
2019-04-22T02:48:31.498Z,21.39
2019-04-22T02:50:08.882Z,22.08
2019-04-22T02:51:22.219Z,21.48
2019-04-22T02:52:14.986Z,22.19
2019-04-22T02:53:37.510Z,21.39
2019-04-22T02:55:10.675Z,21.89
2019-04-22T02:58:16.864Z,22.00
2019-04-22T03:00:12.340Z,21.89
2019-04-22T03:01:13.578Z,21.80
2019-04-22T03:02:11.895Z,21.59
2019-04-22T03:03:23.443Z,21.70
2019-04-22T03:04:22.650Z,21.89
2019-04-22T03:07:05.396Z,21.39
2019-04-22T03:07:05.430Z,21.59
2019-04-22T03:09:12.680Z,21.39
2019-04-22T03:10:09.091Z,21.39
2019-04-22T03:11:19.008Z,21.70
2019-04-22T03:13:21.359Z,21.59
2019-04-22T03:15:22.030Z,21.59
2019-04-22T03:18:09.493Z,22.00
2019-04-22T03:21:14.658Z,21.30
2019-04-22T03:22:24.072Z,22.19
2019-04-22T03:27:08.201Z,21.89
2019-04-22T03:28:08.834Z,21.89
2019-04-22T03:29:11.187Z,21.59
2019-04-22T03:31:31.658Z,21.59
2019-04-22T03:33:20.151Z,21.59
2019-04-22T03:34:54.542Z,21.80
2019-04-22T03:36:41.875Z,21.59
2019-04-22T03:37:21.088Z,22.09
2019-04-22T03:39:33.517Z,22.30
2019-04-22T03:41:24.475Z,22.60
2019-04-22T03:44:31.277Z,22.39
2019-04-22T03:45:20.118Z,22.39
2019-04-22T03:46:16.651Z,22.39
2019-04-22T03:47:16.075Z,22.39
2019-04-22T03:48:07.968Z,22.19
2019-04-22T03:49:28.235Z,22.09
2019-04-22T03:50:22.676Z,22.09
2019-04-22T03:51:18.429Z,22.19
2019-04-22T03:52:18.804Z,22.50
2019-04-22T03:53:41.323Z,22.50
2019-04-22T03:54:25.909Z,22.39
2019-04-22T03:55:07.432Z,22.39
2019-04-22T03:56:19.105Z,22.00
2019-04-22T03:58:01.774Z,22.80
2019-04-22T03:59:25.155Z,22.60
2019-04-22T04:00:18.982Z,22.30
2019-04-22T04:02:29.242Z,22.60
2019-04-22T04:03:11.788Z,22.80
2019-04-22T04:04:20.935Z,22.50
2019-04-22T04:05:10.291Z,22.69
2019-04-22T04:06:06.867Z,22.50
2019-04-22T04:07:22.108Z,22.89
2019-04-22T04:09:16.878Z,23.10
2019-04-22T04:10:19.807Z,22.60
2019-04-22T04:11:07.092Z,22.80
2019-04-22T04:13:08.442Z,23.00
2019-04-22T04:14:18.058Z,23.00
2019-04-22T04:15:23.562Z,22.89
2019-04-22T04:16:12.894Z,22.69
2019-04-22T04:17:09.655Z,23.00
2019-04-22T04:19:13.714Z,22.80
2019-04-22T04:21:26.946Z,22.89
2019-04-22T04:22:21.313Z,22.69
2019-04-22T04:23:21.894Z,22.89
2019-04-22T04:25:32.149Z,23.49
2019-04-22T04:26:43.256Z,23.69
2019-04-22T04:27:39.828Z,24.10
2019-04-22T04:28:46.447Z,23.39
2019-04-22T04:29:36.137Z,23.99
2019-04-22T04:30:18.946Z,23.60
2019-04-22T04:31:17.801Z,23.90
2019-04-22T04:32:30.919Z,23.38
2019-04-22T04:33:15.712Z,23.39
2019-04-22T04:34:20.031Z,23.69
2019-04-22T04:35:32.141Z,23.69
2019-04-22T04:36:13.969Z,23.90
2019-04-22T04:38:08.189Z,23.69
2019-04-22T04:39:22.196Z,23.90
2019-04-22T04:40:29.222Z,23.90
2019-04-22T04:41:17.651Z,23.90
2019-04-22T04:43:07.949Z,23.99
2019-04-22T04:44:34.255Z,23.88
2019-04-22T04:46:19.844Z,23.99
2019-04-22T04:47:25.742Z,24.19
2019-04-22T04:48:15.008Z,23.99
2019-04-22T04:51:18.033Z,23.88
2019-04-22T04:52:20.947Z,23.68
2019-04-22T04:53:14.538Z,23.79
2019-04-22T04:56:30.447Z,23.99
2019-04-22T04:57:17.402Z,23.99
2019-04-22T05:02:24.245Z,23.47
2019-04-22T05:03:16.688Z,23.99
2019-04-22T05:05:12.081Z,23.99
2019-04-22T05:06:12.887Z,24.17
2019-04-22T05:08:12.774Z,23.97
2019-04-22T05:09:15.164Z,24.38
2019-04-22T05:10:30.988Z,23.97
2019-04-22T05:12:27.530Z,24.17
2019-04-22T05:13:10.406Z,23.99
2019-04-22T05:15:15.329Z,23.97
2019-04-22T05:17:16.486Z,23.77
2019-04-22T05:18:18.985Z,23.49
2019-04-22T05:19:07.530Z,24.37
2019-04-22T05:20:12.824Z,23.97
2019-04-22T05:22:06.068Z,23.57
2019-04-22T05:23:09.238Z,24.37
2019-04-22T05:24:09.541Z,23.77
2019-04-22T05:26:04.284Z,23.97
2019-04-22T05:27:14.913Z,23.88
2019-04-22T05:28:09.020Z,24.07
2019-04-22T05:29:08.482Z,24.07
2019-04-22T05:31:08.699Z,23.87
2019-04-22T05:32:03.080Z,23.87
2019-04-22T05:33:07.370Z,24.37
2019-04-22T05:34:04.317Z,23.97
2019-04-22T05:35:09.916Z,23.87
2019-04-22T05:36:07.607Z,23.87
2019-04-22T05:37:13.129Z,23.87
2019-04-22T05:38:11.184Z,23.77
2019-04-22T05:39:06.285Z,24.07
2019-04-22T05:40:14.006Z,24.07
2019-04-22T05:41:03.146Z,23.87
2019-04-22T05:42:03.650Z,23.87
2019-04-22T05:43:01.950Z,23.77
2019-04-22T05:44:04.978Z,23.77
2019-04-22T05:45:05.499Z,24.17
2019-04-22T05:46:02.923Z,24.07
2019-04-22T05:47:04.378Z,23.99
2019-04-22T05:48:02.831Z,23.87
2019-04-22T05:49:09.951Z,23.97
2019-04-22T05:50:02.277Z,23.87
2019-04-22T05:51:01.993Z,23.97
2019-04-22T05:52:04.716Z,24.17
2019-04-22T05:53:03.279Z,24.57
2019-04-22T05:53:59.538Z,24.57
2019-04-22T05:56:09.922Z,24.57
2019-04-22T05:57:06.575Z,23.68
2019-04-22T05:58:02.723Z,24.67
2019-04-22T05:59:03.841Z,23.47
2019-04-22T06:00:06.639Z,24.57
2019-04-22T06:01:36.675Z,23.97
2019-04-22T06:02:05.070Z,24.17
2019-04-22T06:03:09.991Z,24.57
2019-04-22T06:04:05.452Z,24.47
2019-04-22T06:05:11.930Z,24.17
2019-04-22T06:06:00.824Z,24.57
2019-04-22T06:07:01.057Z,24.47
2019-04-22T06:07:56.786Z,24.67
2019-04-22T06:09:07.463Z,24.38
2019-04-22T06:10:04.251Z,24.27
2019-04-22T06:11:10.130Z,24.37
2019-04-22T06:11:59.113Z,24.27
2019-04-22T06:12:59.219Z,24.67
2019-04-22T06:13:57.626Z,24.68
2019-04-22T06:16:02.125Z,24.47
2019-04-22T06:17:03.900Z,24.57
2019-04-22T06:18:09.390Z,24.67
2019-04-22T06:19:09.599Z,24.57
2019-04-22T06:20:07.683Z,24.17
2019-04-22T06:21:05.236Z,24.77
2019-04-22T06:22:10.766Z,24.37
2019-04-22T06:23:04.488Z,24.47
2019-04-22T06:25:01.201Z,24.37
2019-04-22T06:27:10.265Z,24.57
2019-04-22T06:28:03.398Z,24.77
2019-04-22T06:29:07.360Z,24.67
2019-04-22T06:30:06.066Z,24.57
2019-04-22T06:32:23.069Z,24.37
2019-04-22T06:33:00.846Z,24.37
2019-04-22T06:35:11.353Z,24.67
2019-04-22T06:36:03.421Z,24.87
2019-04-22T06:37:16.082Z,24.47
2019-04-22T06:38:25.618Z,24.17
2019-04-22T06:39:13.307Z,24.67
2019-04-22T06:40:07.330Z,24.37
2019-04-22T06:41:09.338Z,24.47
2019-04-22T06:43:05.636Z,24.07
2019-04-22T06:44:09.343Z,24.07
2019-04-22T06:45:04.240Z,24.07
2019-04-22T06:46:02.486Z,24.17
2019-04-22T06:47:06.571Z,24.17
2019-04-22T06:48:09.821Z,24.17
2019-04-22T06:49:03.026Z,24.18
2019-04-22T06:50:03.889Z,24.27
2019-04-22T06:51:00.182Z,24.37
2019-04-22T06:52:08.050Z,24.27
2019-04-22T06:53:05.805Z,24.27
2019-04-22T06:54:02.894Z,24.29
2019-04-22T06:55:59.728Z,24.17
2019-04-22T06:57:01.596Z,24.18
2019-04-22T06:58:57.799Z,24.57
2019-04-22T07:00:05.279Z,24.18
2019-04-22T07:01:04.185Z,24.27
2019-04-22T07:02:04.825Z,24.17
2019-04-22T07:04:01.528Z,24.77
2019-04-22T07:05:00.959Z,24.07
2019-04-22T07:06:08.063Z,24.07
2019-04-22T07:08:04.125Z,24.47
2019-04-22T07:10:06.613Z,24.37
2019-04-22T07:10:58.240Z,24.17
2019-04-22T07:12:05.969Z,24.37
2019-04-22T07:13:00.924Z,24.87
2019-04-22T07:14:04.246Z,24.17
2019-04-22T07:15:08.508Z,24.77
2019-04-22T07:16:03.977Z,24.57
2019-04-22T07:17:05.178Z,24.77
2019-04-22T07:18:04.085Z,24.17
2019-04-22T07:19:01.864Z,24.77
2019-04-22T07:20:02.123Z,24.17
2019-04-22T07:21:01.250Z,24.07
2019-04-22T07:22:09.717Z,24.77
2019-04-22T07:23:02.561Z,24.67
2019-04-22T07:24:22.832Z,24.37
2019-04-22T07:27:08.888Z,24.47
2019-04-22T07:27:58.600Z,24.17
2019-04-22T07:29:04.092Z,24.47
2019-04-22T07:30:09.548Z,24.17
2019-04-22T07:31:05.045Z,24.47
2019-04-22T07:32:00.245Z,24.17
2019-04-22T07:34:08.155Z,24.37
2019-04-22T07:35:22.855Z,24.17
2019-04-22T07:36:25.696Z,24.17
2019-04-22T07:37:15.329Z,24.37
2019-04-22T07:38:05.858Z,24.38
2019-04-22T07:39:05.794Z,24.38
2019-04-22T07:39:56.800Z,24.37
2019-04-22T07:41:05.329Z,24.27
2019-04-22T07:41:56.038Z,24.37
2019-04-22T07:43:09.522Z,24.17
2019-04-22T07:44:22.083Z,24.37
2019-04-22T07:45:08.477Z,24.27
2019-04-22T07:46:00.073Z,24.07
2019-04-22T07:47:04.801Z,24.17
2019-04-22T07:48:13.027Z,24.37
2019-04-22T07:49:06.659Z,24.17
2019-04-22T07:50:09.598Z,24.17
2019-04-22T07:51:05.545Z,24.17
2019-04-22T07:52:03.619Z,24.17
2019-04-22T07:52:57.046Z,24.17
2019-04-22T07:54:03.371Z,24.17
2019-04-22T07:55:02.379Z,24.17
2019-04-22T07:56:01.317Z,24.27
2019-04-22T07:57:08.921Z,24.07
2019-04-22T07:58:01.173Z,24.07
2019-04-22T07:59:07.589Z,24.27
2019-04-22T08:00:02.932Z,24.37
2019-04-22T08:01:04.100Z,24.37
2019-04-22T08:02:04.469Z,24.57
2019-04-22T08:03:06.206Z,24.17
2019-04-22T08:04:24.323Z,23.97
2019-04-22T08:07:03.844Z,24.97
2019-04-22T08:08:10.983Z,24.87
2019-04-22T08:09:11.313Z,24.97
2019-04-22T08:10:09.175Z,25.07
2019-04-22T08:11:18.899Z,25.07
2019-04-22T08:11:59.308Z,25.27
2019-04-22T08:13:05.663Z,24.67
2019-04-22T08:13:58.974Z,25.27
2019-04-22T08:15:00.065Z,25.47
2019-04-22T08:16:04.808Z,25.07
2019-04-22T08:17:14.473Z,24.79
2019-04-22T08:18:04.609Z,25.07
2019-04-22T08:19:03.072Z,25.07
2019-04-22T08:20:02.828Z,24.77
2019-04-22T08:20:58.914Z,24.68
2019-04-22T08:22:02.357Z,24.67
2019-04-22T08:23:04.797Z,24.67
2019-04-22T08:24:01.237Z,24.77
2019-04-22T08:25:01.922Z,24.67
2019-04-22T08:26:05.372Z,24.48
2019-04-22T08:26:59.349Z,24.97
2019-04-22T08:28:08.350Z,24.97
2019-04-22T08:29:12.388Z,24.57
2019-04-22T08:31:04.803Z,24.67
2019-04-22T08:31:59.142Z,24.77
2019-04-22T08:33:05.049Z,24.77
2019-04-22T08:34:01.748Z,24.67
2019-04-22T08:35:04.899Z,24.77
2019-04-22T08:37:57.577Z,25.07
2019-04-22T08:39:01.954Z,25.57
2019-04-22T08:40:09.627Z,24.97
2019-04-22T08:41:08.665Z,24.77
2019-04-22T08:41:57.231Z,24.97
2019-04-22T08:43:08.770Z,25.59
2019-04-22T08:44:02.324Z,25.57
2019-04-22T08:46:06.423Z,25.78
2019-04-22T08:48:04.481Z,25.77
2019-04-22T08:48:59.042Z,25.57
2019-04-22T08:50:16.388Z,24.97
2019-04-22T08:51:00.618Z,24.87
2019-04-22T08:52:06.903Z,25.67
2019-04-22T08:53:01.964Z,24.47
2019-04-22T08:55:08.134Z,24.77
2019-04-22T08:56:07.738Z,24.67
2019-04-22T08:57:06.643Z,24.77
2019-04-22T08:58:16.805Z,24.67
2019-04-22T08:59:12.328Z,24.67
2019-04-22T09:00:02.545Z,24.47
2019-04-22T09:01:04.455Z,24.97
2019-04-22T09:01:49.181Z,24.67
2019-04-22T09:04:02.377Z,24.77
2019-04-22T09:05:10.670Z,24.87
2019-04-22T09:06:08.500Z,24.87
2019-04-22T09:08:07.743Z,24.77
2019-04-22T09:09:04.223Z,24.77
2019-04-22T09:10:05.156Z,24.67
2019-04-22T09:11:04.635Z,24.57
2019-04-22T09:12:01.344Z,24.57
2019-04-22T09:13:03.651Z,24.77
2019-04-22T09:14:08.902Z,24.77
2019-04-22T09:15:01.075Z,25.28
2019-04-22T09:16:03.624Z,24.87
2019-04-22T09:17:10.401Z,24.97
2019-04-22T09:18:06.798Z,24.97
2019-04-22T09:18:59.780Z,24.97
2019-04-22T09:20:00.399Z,24.87
2019-04-22T09:21:08.901Z,25.28
2019-04-22T09:22:00.579Z,24.87
2019-04-22T09:23:03.713Z,24.97
2019-04-22T09:24:05.010Z,24.98
2019-04-22T09:24:58.586Z,24.97
2019-04-22T09:26:05.027Z,24.97
2019-04-22T09:27:03.978Z,24.87
2019-04-22T09:27:55.627Z,24.38
2019-04-22T09:29:05.178Z,24.68
2019-04-22T09:30:01.133Z,24.37
2019-04-22T09:31:01.723Z,24.37
2019-04-22T09:32:06.862Z,24.37
2019-04-22T09:33:02.893Z,24.17
2019-04-22T09:34:00.462Z,24.17
2019-04-22T09:34:59.013Z,24.77
2019-04-22T09:36:08.922Z,24.77
2019-04-22T09:37:06.040Z,24.57
2019-04-22T09:38:11.798Z,24.77
2019-04-22T09:39:00.855Z,24.77
2019-04-22T09:40:04.506Z,24.47
2019-04-22T09:40:59.872Z,24.07
2019-04-22T09:41:59.248Z,24.47
2019-04-22T09:43:17.180Z,24.17
2019-04-22T09:45:01.057Z,24.27
2019-04-22T09:46:01.438Z,24.47
2019-04-22T09:47:00.418Z,24.67
2019-04-22T09:48:03.093Z,24.67
2019-04-22T09:50:01.526Z,24.37
2019-04-22T09:50:59.708Z,24.17
2019-04-22T09:51:58.182Z,24.57
2019-04-22T09:53:02.079Z,24.37
2019-04-22T09:54:07.303Z,24.47
2019-04-22T09:55:06.109Z,24.37
2019-04-22T09:56:03.472Z,24.47
2019-04-22T09:57:02.173Z,24.17
2019-04-22T09:57:58.826Z,24.17
2019-04-22T09:59:13.829Z,24.47
2019-04-22T10:00:02.290Z,24.17
2019-04-22T10:01:03.323Z,24.27
2019-04-22T10:02:16.026Z,24.37
2019-04-22T10:03:00.924Z,24.57
2019-04-22T10:04:05.396Z,24.67
2019-04-22T10:05:03.524Z,24.37
2019-04-22T10:06:13.277Z,24.27
2019-04-22T10:06:54.640Z,24.37
2019-04-22T10:07:59.461Z,24.27
2019-04-22T10:09:25.953Z,24.47
2019-04-22T10:10:09.457Z,24.17
2019-04-22T10:11:08.671Z,24.17
2019-04-22T10:11:56.342Z,23.99
2019-04-22T10:13:03.494Z,24.17
2019-04-22T10:13:59.764Z,24.67
2019-04-22T10:15:13.858Z,24.17
2019-04-22T10:16:07.658Z,24.47
2019-04-22T10:17:00.056Z,24.17
2019-04-22T10:17:56.449Z,24.57
2019-04-22T10:20:01.092Z,24.57
2019-04-22T10:21:08.438Z,24.18
2019-04-22T10:21:57.319Z,24.47
2019-04-22T10:22:57.714Z,24.38
2019-04-22T10:24:09.265Z,24.57
2019-04-22T10:24:59.049Z,24.38
2019-04-22T10:25:58.828Z,24.38
2019-04-22T10:26:56.805Z,24.57
2019-04-22T10:28:04.916Z,24.67
2019-04-22T10:30:00.064Z,24.57
2019-04-22T10:30:52.137Z,24.47
2019-04-22T10:32:00.860Z,24.18
2019-04-22T10:32:58.905Z,24.87
2019-04-22T10:33:49.538Z,24.48
2019-04-22T10:34:40.875Z,24.17
2019-04-22T10:35:34.563Z,24.67
2019-04-22T10:36:33.280Z,24.58
2019-04-22T10:37:34.292Z,24.17
2019-04-22T10:38:34.501Z,24.47
2019-04-22T10:39:42.283Z,24.57
2019-04-22T10:40:34.619Z,24.57
2019-04-22T10:41:34.613Z,24.67
2019-04-22T10:42:33.588Z,24.37
2019-04-22T10:43:33.210Z,24.37
2019-04-22T10:44:33.342Z,24.68
2019-04-22T10:45:34.484Z,24.37
2019-04-22T10:46:33.979Z,24.27
2019-04-22T10:47:34.171Z,24.47
2019-04-22T10:48:34.415Z,23.97
2019-04-22T10:49:34.088Z,24.17
2019-04-22T10:50:35.694Z,24.17
2019-04-22T10:51:33.107Z,24.47
2019-04-22T10:52:39.412Z,24.57
2019-04-22T10:53:33.461Z,24.47
2019-04-22T10:54:33.695Z,24.57
2019-04-22T10:55:33.059Z,24.47
2019-04-22T10:56:33.053Z,24.37
2019-04-22T10:57:33.878Z,24.57
2019-04-22T10:58:33.035Z,24.77
2019-04-22T10:59:34.282Z,24.67
2019-04-22T11:00:33.611Z,24.38
2019-04-22T11:01:33.854Z,24.57
2019-04-22T11:02:32.993Z,24.27
2019-04-22T11:03:33.265Z,24.37
2019-04-22T11:04:34.282Z,24.47
2019-04-22T11:05:34.089Z,24.57
2019-04-22T11:06:33.666Z,24.29
2019-04-22T11:07:42.387Z,24.17
2019-04-22T11:08:41.422Z,24.57
2019-04-22T11:09:45.896Z,24.79
2019-04-22T11:10:47.443Z,23.88
2019-04-22T11:11:46.078Z,23.97
2019-04-22T11:12:35.467Z,23.57
2019-04-22T11:13:33.756Z,24.37
2019-04-22T11:14:32.953Z,24.29
2019-04-22T11:15:32.943Z,24.08
2019-04-22T11:16:32.827Z,24.48
2019-04-22T11:17:33.541Z,24.29
2019-04-22T11:18:33.728Z,24.29
2019-04-22T11:19:32.825Z,23.77
2019-04-22T11:20:33.717Z,24.29
2019-04-22T11:21:33.775Z,23.58
2019-04-22T11:22:36.591Z,24.08
2019-04-22T11:23:32.747Z,24.37
2019-04-22T11:24:41.156Z,23.58
2019-04-22T11:25:33.943Z,23.58
2019-04-22T11:26:32.706Z,23.88
2019-04-22T11:27:32.953Z,23.99
2019-04-22T11:28:33.875Z,23.68
2019-04-22T11:29:32.676Z,23.88
2019-04-22T11:30:32.992Z,24.18
2019-04-22T11:31:32.649Z,24.37
2019-04-22T11:32:32.803Z,24.27
2019-04-22T11:33:32.634Z,23.99
2019-04-22T11:34:33.381Z,23.87
2019-04-22T11:35:33.977Z,24.29
2019-04-22T11:36:32.665Z,23.99
2019-04-22T11:37:32.784Z,24.48
2019-04-22T11:38:33.014Z,23.79
2019-04-22T11:39:36.250Z,24.18
2019-04-22T11:40:38.396Z,24.18
2019-04-22T11:41:33.876Z,23.87
2019-04-22T11:42:32.525Z,24.48
2019-04-22T11:43:32.513Z,23.79
2019-04-22T11:44:33.004Z,23.79
2019-04-22T11:45:33.244Z,24.29
2019-04-22T11:46:33.586Z,23.87
2019-04-22T11:47:33.079Z,24.37
2019-04-22T11:48:33.875Z,23.68
2019-04-22T11:49:32.449Z,24.17
2019-04-22T11:50:33.573Z,24.07
2019-04-22T11:51:33.769Z,23.68
2019-04-22T11:52:33.087Z,24.18
2019-04-22T11:53:32.407Z,24.07
2019-04-22T11:54:32.662Z,23.87
2019-04-22T11:55:32.880Z,23.68
2019-04-22T11:56:38.927Z,23.87
2019-04-22T11:57:32.944Z,23.97
2019-04-22T11:58:33.152Z,23.97
2019-04-22T11:59:33.037Z,23.88
2019-04-22T12:00:32.778Z,23.87
2019-04-22T12:01:32.991Z,24.37
2019-04-22T12:02:33.133Z,24.08
2019-04-22T12:03:33.570Z,23.99
2019-04-22T12:04:32.279Z,23.68
2019-04-22T12:05:32.302Z,23.88
2019-04-22T12:06:33.630Z,23.99
2019-04-22T12:07:34.797Z,23.88
2019-04-22T12:08:32.235Z,24.48
2019-04-22T12:09:33.387Z,23.88
2019-04-22T12:10:38.826Z,23.88
2019-04-22T12:11:34.503Z,24.18
2019-04-22T12:12:32.187Z,23.88
2019-04-22T12:13:33.696Z,24.08
2019-04-22T12:14:32.166Z,23.88
2019-04-22T12:15:32.971Z,24.48
2019-04-22T12:16:32.141Z,23.58
2019-04-22T12:17:32.133Z,23.88
2019-04-22T12:18:33.322Z,24.48
2019-04-22T12:19:33.685Z,23.88
2019-04-22T12:20:32.999Z,23.88
2019-04-22T12:21:33.039Z,23.79
2019-04-22T12:22:32.069Z,23.88
2019-04-22T12:23:32.738Z,24.18
2019-04-22T12:24:32.085Z,24.60
2019-04-22T12:25:42.409Z,24.69
2019-04-22T12:26:34.447Z,23.99
2019-04-22T12:27:32.645Z,24.19
2019-04-22T12:28:39.256Z,24.30
2019-04-22T12:29:33.195Z,24.40
2019-04-22T12:30:33.263Z,24.40
2019-04-22T12:31:33.464Z,24.40
2019-04-22T12:32:31.955Z,24.79
2019-04-22T12:33:31.950Z,24.40
2019-04-22T12:34:33.254Z,24.40
2019-04-22T12:35:32.728Z,24.60
2019-04-22T12:36:32.762Z,24.69
2019-04-22T12:37:43.017Z,24.30
2019-04-22T12:38:33.466Z,24.40
2019-04-22T12:39:31.894Z,24.49
2019-04-22T12:40:41.170Z,24.40
2019-04-22T12:41:33.869Z,24.49
2019-04-22T12:42:33.215Z,24.49
2019-04-22T12:43:33.350Z,24.19
2019-04-22T12:44:32.803Z,24.40
2019-04-22T12:45:32.032Z,24.40
2019-04-22T12:46:32.332Z,24.10
2019-04-22T12:47:33.545Z,24.40
2019-04-22T12:48:32.881Z,24.79
2019-04-22T12:49:32.206Z,24.40
2019-04-22T12:50:35.733Z,24.49
2019-04-22T12:51:33.272Z,24.79
2019-04-22T12:52:39.716Z,24.60
2019-04-22T12:53:33.935Z,24.10
2019-04-22T12:54:33.055Z,24.60
2019-04-22T12:55:32.374Z,24.60
2019-04-22T12:56:31.687Z,24.40
2019-04-22T12:57:32.659Z,23.90
2019-04-22T12:58:31.799Z,24.40
2019-04-22T12:59:31.926Z,24.10
2019-04-22T13:00:38.736Z,24.10
2019-04-22T13:01:33.005Z,24.60
2019-04-22T13:02:31.623Z,24.19
2019-04-22T13:03:31.986Z,24.60
2019-04-22T13:04:32.284Z,24.90
2019-04-22T13:05:33.295Z,24.99
2019-04-22T13:06:32.082Z,24.19
2019-04-22T13:07:31.591Z,24.90
2019-04-22T13:08:31.794Z,24.90
2019-04-22T13:09:31.673Z,24.90
2019-04-22T13:10:42.999Z,24.99
2019-04-22T13:11:36.361Z,24.99
2019-04-22T13:12:32.943Z,24.99
2019-04-22T13:13:31.498Z,24.90
2019-04-22T13:14:32.772Z,24.99
2019-04-22T13:15:32.894Z,24.90
2019-04-22T13:16:31.462Z,24.90
2019-04-22T13:17:32.881Z,24.90
2019-04-22T13:18:39.476Z,25.10
2019-04-22T13:19:33.867Z,25.10
2019-04-22T13:20:32.368Z,24.99
2019-04-22T13:21:32.899Z,25.29
2019-04-22T13:22:32.556Z,24.99
2019-04-22T13:23:31.794Z,24.90
2019-04-22T13:24:32.006Z,24.99
2019-04-22T13:25:32.432Z,25.29
2019-04-22T13:26:31.970Z,25.29
2019-04-22T13:27:33.023Z,25.29
2019-04-22T13:28:31.521Z,25.40
2019-04-22T13:29:32.927Z,25.49
2019-04-22T13:30:32.575Z,25.29
2019-04-22T13:31:32.859Z,24.79
2019-04-22T13:32:38.827Z,25.49
2019-04-22T13:33:32.718Z,24.79
2019-04-22T13:34:39.592Z,25.10
2019-04-22T13:35:32.240Z,25.29
2019-04-22T13:36:31.791Z,24.79
2019-04-22T13:37:32.718Z,24.60
2019-04-22T13:38:31.246Z,24.69
2019-04-22T13:39:31.428Z,24.99
2019-04-22T13:40:31.187Z,24.79
2019-04-22T13:41:39.939Z,24.79
2019-04-22T13:42:33.393Z,24.99
2019-04-22T13:43:31.287Z,24.69
2019-04-22T13:44:31.478Z,24.49
2019-04-22T13:45:31.804Z,24.69
2019-04-22T13:46:33.362Z,25.10
2019-04-22T13:47:46.443Z,24.99
2019-04-22T13:48:52.677Z,24.79
2019-04-22T13:52:19.117Z,25.60
2019-04-22T13:54:30.043Z,25.70
2019-04-22T13:54:53.414Z,25.51
2019-04-22T13:55:56.612Z,25.29
2019-04-22T13:56:55.110Z,25.70
2019-04-22T13:57:47.173Z,25.49
2019-04-22T13:58:44.755Z,26.20
2019-04-22T13:59:38.882Z,26.20
2019-04-22T14:00:31.963Z,26.20
2019-04-22T14:01:32.328Z,25.70
2019-04-22T14:02:30.930Z,25.60
2019-04-22T14:03:33.777Z,26.29
2019-04-22T14:04:38.469Z,25.79
2019-04-22T14:05:31.110Z,25.79
2019-04-22T14:06:31.224Z,25.70
2019-04-22T14:07:30.876Z,25.60
2019-04-22T14:08:31.326Z,25.49
2019-04-22T14:09:33.650Z,25.49
2019-04-22T14:10:32.102Z,25.70
2019-04-22T14:11:37.662Z,25.90
2019-04-22T14:12:32.925Z,25.79
2019-04-22T14:13:32.148Z,25.60
2019-04-22T14:14:30.790Z,25.49
2019-04-22T14:15:31.959Z,25.79
2019-04-22T14:16:31.173Z,25.40
2019-04-22T14:17:31.516Z,25.29
2019-04-22T14:18:30.837Z,25.60
2019-04-22T14:19:32.052Z,25.70
2019-04-22T14:20:32.378Z,26.40
2019-04-22T14:21:30.716Z,26.20
2019-04-22T14:22:30.699Z,25.99
2019-04-22T14:23:30.956Z,25.99
2019-04-22T14:24:30.681Z,25.99
2019-04-22T14:25:30.670Z,25.79
2019-04-22T14:26:46.862Z,26.20
2019-04-22T14:27:42.137Z,25.90
2019-04-22T14:28:32.892Z,26.09
2019-04-22T14:29:31.408Z,25.99
2019-04-22T14:30:30.619Z,25.79